Accueil
METAR-TAF:

METAR-TAF

Aéroports :

Funchal, Madère, Portugal

Aéroport Cristiano-Ronaldo

latitude: 32-41-52N, longitude: 016-46-28W, altitude: 59 m

Observation

Le bulletin a été fait il y a 18 minutes, à 05:00 UTC
Vent 12 kt de nord, variant entre nord/nord-ouest et nord/nord-est
Température 20°C
Humidité 68%
Pression 1016 hPa
Visibilité 10 km ou plus
Quelques nuages à une hauteur de 1500 ft

METAR: LPMA 260500Z 01012KT 330V030 9999 FEW015 20/14 Q1016

Heure: 06:18 (05:18 UTC)


TAF: absent

Observations et prévisions météorologiques de plus de 4000 aéroports (messages METAR et TAF).

Les stations disponibles sont représentées par des disques jaunes et rouges sur la carte.

Passer la souris dessus pour voir le nom de la station.

Cliquer dessus pour voir les observations et prévisions météorologiques.

Pour changer de carte: cliquez sur les boutons verts avec une croix noire pour zoomer, sur le bouton vert avec un tiret pour effectuer un zoom arrière, ou sur les flèches vertes pour les cartes adjacentes.


METAR-TAF: